sensor_id;sensor_type;location;lat;lon;timestamp;temperature;humidity
69543;SHT31;56762;49.494;11.768;2023-05-19T00:01:49;10.93;59.62
69543;SHT31;56762;49.494;11.768;2023-05-19T00:04:18;10.88;59.81
69543;SHT31;56762;49.494;11.768;2023-05-19T00:06:49;10.87;59.75
69543;SHT31;56762;49.494;11.768;2023-05-19T00:09:18;10.90;59.61
69543;SHT31;56762;49.494;11.768;2023-05-19T00:11:47;10.87;59.60
69543;SHT31;56762;49.494;11.768;2023-05-19T00:14:17;10.88;59.99
69543;SHT31;56762;49.494;11.768;2023-05-19T00:16:45;10.87;59.77
69543;SHT31;56762;49.494;11.768;2023-05-19T00:19:14;10.84;60.01
69543;SHT31;56762;49.494;11.768;2023-05-19T00:21:42;10.84;60.26
69543;SHT31;56762;49.494;11.768;2023-05-19T00:24:10;10.84;60.40
69543;SHT31;56762;49.494;11.768;2023-05-19T00:26:39;10.83;60.45
69543;SHT31;56762;49.494;11.768;2023-05-19T00:29:07;10.83;60.73
69543;SHT31;56762;49.494;11.768;2023-05-19T00:31:36;10.76;60.65
69543;SHT31;56762;49.494;11.768;2023-05-19T00:34:04;10.76;61.09
69543;SHT31;56762;49.494;11.768;2023-05-19T00:36:32;10.74;62.47
69543;SHT31;56762;49.494;11.768;2023-05-19T00:39:00;10.70;61.71
69543;SHT31;56762;49.494;11.768;2023-05-19T00:41:29;10.67;61.50
69543;SHT31;56762;49.494;11.768;2023-05-19T00:43:58;10.63;61.31
69543;SHT31;56762;49.494;11.768;2023-05-19T00:46:26;10.66;61.12
69543;SHT31;56762;49.494;11.768;2023-05-19T00:48:57;10.63;61.12
69543;SHT31;56762;49.494;11.768;2023-05-19T00:51:27;10.61;61.25
69543;SHT31;56762;49.494;11.768;2023-05-19T00:53:57;10.71;60.89
69543;SHT31;56762;49.494;11.768;2023-05-19T00:56:25;10.68;61.05
69543;SHT31;56762;49.494;11.768;2023-05-19T00:58:54;10.63;61.41
69543;SHT31;56762;49.494;11.768;2023-05-19T01:01:22;10.63;61.49
69543;SHT31;56762;49.494;11.768;2023-05-19T01:03:52;10.68;61.50
69543;SHT31;56762;49.494;11.768;2023-05-19T01:06:23;10.64;61.92
69543;SHT31;56762;49.494;11.768;2023-05-19T01:08:53;10.67;62.51
69543;SHT31;56762;49.494;11.768;2023-05-19T01:11:23;10.67;61.94
69543;SHT31;56762;49.494;11.768;2023-05-19T01:13:51;10.68;61.66
69543;SHT31;56762;49.494;11.768;2023-05-19T01:16:25;10.70;62.13
69543;SHT31;56762;49.494;11.768;2023-05-19T01:19:00;10.71;61.48
69543;SHT31;56762;49.494;11.768;2023-05-19T01:22:07;10.74;60.99
69543;SHT31;56762;49.494;11.768;2023-05-19T01:28:05;10.68;62.08
69543;SHT31;56762;49.494;11.768;2023-05-19T01:30:39;10.70;62.28
69543;SHT31;56762;49.494;11.768;2023-05-19T01:33:09;10.70;62.15
69543;SHT31;56762;49.494;11.768;2023-05-19T01:35:40;10.66;61.99
69543;SHT31;56762;49.494;11.768;2023-05-19T01:38:11;10.71;61.65
69543;SHT31;56762;49.494;11.768;2023-05-19T01:40:40;10.61;62.18
69543;SHT31;56762;49.494;11.768;2023-05-19T01:43:13;10.61;61.99
69543;SHT31;56762;49.494;11.768;2023-05-19T01:45:43;10.59;62.13
69543;SHT31;56762;49.494;11.768;2023-05-19T01:48:13;10.60;62.52
69543;SHT31;56762;49.494;11.768;2023-05-19T01:50:41;10.57;62.55
69543;SHT31;56762;49.494;11.768;2023-05-19T01:53:09;10.57;63.18
69543;SHT31;56762;49.494;11.768;2023-05-19T01:55:42;10.59;63.18
69543;SHT31;56762;49.494;11.768;2023-05-19T01:58:17;10.60;63.22
69543;SHT31;56762;49.494;11.768;2023-05-19T02:00:53;10.59;63.31
69543;SHT31;56762;49.494;11.768;2023-05-19T02:03:36;10.53;63.59
69543;SHT31;56762;49.494;11.768;2023-05-19T02:06:18;10.52;63.31
69543;SHT31;56762;49.494;11.768;2023-05-19T02:08:55;10.46;63.76
69543;SHT31;56762;49.494;11.768;2023-05-19T02:11:32;10.46;63.93
69543;SHT31;56762;49.494;11.768;2023-05-19T02:14:07;10.42;64.67
69543;SHT31;56762;49.494;11.768;2023-05-19T02:16:37;10.42;64.61
69543;SHT31;56762;49.494;11.768;2023-05-19T02:19:19;10.42;65.32
69543;SHT31;56762;49.494;11.768;2023-05-19T02:21:47;10.39;66.22
69543;SHT31;56762;49.494;11.768;2023-05-19T02:24:17;10.39;65.17
69543;SHT31;56762;49.494;11.768;2023-05-19T02:26:45;10.36;64.81
69543;SHT31;56762;49.494;11.768;2023-05-19T02:29:14;10.42;64.96
69543;SHT31;56762;49.494;11.768;2023-05-19T02:31:44;10.43;65.19
69543;SHT31;56762;49.494;11.768;2023-05-19T02:34:13;10.39;65.26
69543;SHT31;56762;49.494;11.768;2023-05-19T02:36:44;10.43;65.27
69543;SHT31;56762;49.494;11.768;2023-05-19T02:39:15;10.42;64.90
69543;SHT31;56762;49.494;11.768;2023-05-19T02:41:43;10.43;65.25
69543;SHT31;56762;49.494;11.768;2023-05-19T02:44:11;10.46;65.20
69543;SHT31;56762;49.494;11.768;2023-05-19T02:46:39;10.46;64.75
69543;SHT31;56762;49.494;11.768;2023-05-19T02:49:09;10.47;64.85
69543;SHT31;56762;49.494;11.768;2023-05-19T02:51:38;10.50;64.85
69543;SHT31;56762;49.494;11.768;2023-05-19T02:54:08;10.50;64.97
69543;SHT31;56762;49.494;11.768;2023-05-19T02:56:36;10.40;65.20
69543;SHT31;56762;49.494;11.768;2023-05-19T02:59:05;10.32;65.48
69543;SHT31;56762;49.494;11.768;2023-05-19T03:01:33;10.32;65.72
69543;SHT31;56762;49.494;11.768;2023-05-19T03:04:03;10.29;65.92
69543;SHT31;56762;49.494;11.768;2023-05-19T03:06:35;10.25;66.07
69543;SHT31;56762;49.494;11.768;2023-05-19T03:09:05;10.19;66.28
69543;SHT31;56762;49.494;11.768;2023-05-19T03:11:33;10.23;66.14
69543;SHT31;56762;49.494;11.768;2023-05-19T03:14:01;10.22;66.31
69543;SHT31;56762;49.494;11.768;2023-05-19T03:16:31;10.19;66.49
69543;SHT31;56762;49.494;11.768;2023-05-19T03:19:00;10.18;66.62
69543;SHT31;56762;49.494;11.768;2023-05-19T03:21:28;10.20;66.68
69543;SHT31;56762;49.494;11.768;2023-05-19T03:23:59;10.20;66.53
69543;SHT31;56762;49.494;11.768;2023-05-19T03:26:27;10.18;66.68
69543;SHT31;56762;49.494;11.768;2023-05-19T03:28:55;10.22;66.41
69543;SHT31;56762;49.494;11.768;2023-05-19T03:31:24;10.26;66.67
69543;SHT31;56762;49.494;11.768;2023-05-19T03:33:53;10.25;67.21
69543;SHT31;56762;49.494;11.768;2023-05-19T03:36:23;10.20;68.32
69543;SHT31;56762;49.494;11.768;2023-05-19T03:38:52;10.19;67.14
69543;SHT31;56762;49.494;11.768;2023-05-19T03:41:21;10.20;67.26
69543;SHT31;56762;49.494;11.768;2023-05-19T03:43:49;10.18;66.90
69543;SHT31;56762;49.494;11.768;2023-05-19T03:46:17;10.16;67.61
69543;SHT31;56762;49.494;11.768;2023-05-19T03:48:46;10.19;67.16
69543;SHT31;56762;49.494;11.768;2023-05-19T03:51:14;10.25;66.91
69543;SHT31;56762;49.494;11.768;2023-05-19T03:53:42;10.22;66.78
69543;SHT31;56762;49.494;11.768;2023-05-19T03:56:11;10.18;68.05
69543;SHT31;56762;49.494;11.768;2023-05-19T03:58:44;10.19;67.26
69543;SHT31;56762;49.494;11.768;2023-05-19T04:01:13;10.22;67.41
69543;SHT31;56762;49.494;11.768;2023-05-19T04:03:42;10.22;67.79
69543;SHT31;56762;49.494;11.768;2023-05-19T04:06:10;10.18;67.37
69543;SHT31;56762;49.494;11.768;2023-05-19T04:08:39;10.20;67.91
69543;SHT31;56762;49.494;11.768;2023-05-19T04:11:10;10.25;67.63
69543;SHT31;56762;49.494;11.768;2023-05-19T04:13:38;10.28;67.76
69543;SHT31;56762;49.494;11.768;2023-05-19T04:16:07;10.19;68.04
69543;SHT31;56762;49.494;11.768;2023-05-19T04:18:35;10.28;67.96
69543;SHT31;56762;49.494;11.768;2023-05-19T04:21:03;10.25;68.09
69543;SHT31;56762;49.494;11.768;2023-05-19T04:23:34;10.23;68.08
69543;SHT31;56762;49.494;11.768;2023-05-19T04:26:02;10.26;67.94
69543;SHT31;56762;49.494;11.768;2023-05-19T04:28:32;10.28;67.87
69543;SHT31;56762;49.494;11.768;2023-05-19T04:31:04;10.30;67.86
69543;SHT31;56762;49.494;11.768;2023-05-19T04:33:38;10.33;68.03
69543;SHT31;56762;49.494;11.768;2023-05-19T04:36:07;10.30;67.98
69543;SHT31;56762;49.494;11.768;2023-05-19T04:38:39;10.35;67.89
69543;SHT31;56762;49.494;11.768;2023-05-19T04:41:07;10.40;68.15
69543;SHT31;56762;49.494;11.768;2023-05-19T04:43:37;10.37;68.63
69543;SHT31;56762;49.494;11.768;2023-05-19T04:46:14;10.39;68.66
69543;SHT31;56762;49.494;11.768;2023-05-19T04:48:44;10.42;68.46
69543;SHT31;56762;49.494;11.768;2023-05-19T04:51:14;10.40;68.67
69543;SHT31;56762;49.494;11.768;2023-05-19T04:53:43;10.33;68.69
69543;SHT31;56762;49.494;11.768;2023-05-19T04:56:11;10.40;68.47
69543;SHT31;56762;49.494;11.768;2023-05-19T04:58:41;10.43;67.97
69543;SHT31;56762;49.494;11.768;2023-05-19T05:01:10;10.42;68.08
69543;SHT31;56762;49.494;11.768;2023-05-19T05:03:39;10.46;67.98
69543;SHT31;56762;49.494;11.768;2023-05-19T05:06:09;10.49;67.88
69543;SHT31;56762;49.494;11.768;2023-05-19T05:08:37;10.49;67.97
69543;SHT31;56762;49.494;11.768;2023-05-19T05:11:07;10.55;67.70
69543;SHT31;56762;49.494;11.768;2023-05-19T05:13:35;10.59;67.67
69543;SHT31;56762;49.494;11.768;2023-05-19T05:16:04;10.60;67.49
69543;SHT31;56762;49.494;11.768;2023-05-19T05:18:34;10.57;67.81
69543;SHT31;56762;49.494;11.768;2023-05-19T05:21:05;10.68;67.67
69543;SHT31;56762;49.494;11.768;2023-05-19T05:23:36;10.64;68.15
69543;SHT31;56762;49.494;11.768;2023-05-19T05:26:08;10.66;67.84
69543;SHT31;56762;49.494;11.768;2023-05-19T05:28:37;10.73;68.02
69543;SHT31;56762;49.494;11.768;2023-05-19T05:31:05;10.88;67.36
69543;SHT31;56762;49.494;11.768;2023-05-19T05:33:35;10.97;66.84
69543;SHT31;56762;49.494;11.768;2023-05-19T05:36:04;10.90;67.32
69543;SHT31;56762;49.494;11.768;2023-05-19T05:38:32;10.94;67.39
69543;SHT31;56762;49.494;11.768;2023-05-19T05:41:03;11.04;66.74
69543;SHT31;56762;49.494;11.768;2023-05-19T05:43:31;11.03;66.67
69543;SHT31;56762;49.494;11.768;2023-05-19T05:45:59;11.04;66.22
69543;SHT31;56762;49.494;11.768;2023-05-19T05:48:28;11.03;66.26
69543;SHT31;56762;49.494;11.768;2023-05-19T05:50:58;10.96;66.49
69543;SHT31;56762;49.494;11.768;2023-05-19T05:53:29;11.04;66.73
69543;SHT31;56762;49.494;11.768;2023-05-19T05:55:58;11.06;66.78
69543;SHT31;56762;49.494;11.768;2023-05-19T05:58:27;11.07;67.33
69543;SHT31;56762;49.494;11.768;2023-05-19T06:00:56;11.11;66.88
69543;SHT31;56762;49.494;11.768;2023-05-19T06:03:25;11.14;66.38
69543;SHT31;56762;49.494;11.768;2023-05-19T06:05:53;11.11;66.35
69543;SHT31;56762;49.494;11.768;2023-05-19T06:08:22;11.29;66.62
69543;SHT31;56762;49.494;11.768;2023-05-19T06:10:54;11.22;66.22
69543;SHT31;56762;49.494;11.768;2023-05-19T06:13:23;11.24;66.07
69543;SHT31;56762;49.494;11.768;2023-05-19T06:15:53;11.24;65.75
69543;SHT31;56762;49.494;11.768;2023-05-19T06:18:21;11.35;66.13
69543;SHT31;56762;49.494;11.768;2023-05-19T06:20:49;11.36;65.77
69543;SHT31;56762;49.494;11.768;2023-05-19T06:23:17;11.31;65.99
69543;SHT31;56762;49.494;11.768;2023-05-19T06:25:44;11.32;66.34
69543;SHT31;56762;49.494;11.768;2023-05-19T06:28:12;11.38;65.98
69543;SHT31;56762;49.494;11.768;2023-05-19T06:30:41;11.49;65.33
69543;SHT31;56762;49.494;11.768;2023-05-19T06:33:10;11.49;65.79
69543;SHT31;56762;49.494;11.768;2023-05-19T06:35:38;11.59;66.16
69543;SHT31;56762;49.494;11.768;2023-05-19T06:38:06;11.58;65.15
69543;SHT31;56762;49.494;11.768;2023-05-19T06:40:35;11.58;65.91
69543;SHT31;56762;49.494;11.768;2023-05-19T06:43:03;11.56;65.56
69543;SHT31;56762;49.494;11.768;2023-05-19T06:45:31;11.65;65.78
69543;SHT31;56762;49.494;11.768;2023-05-19T06:48:02;11.65;65.09
69543;SHT31;56762;49.494;11.768;2023-05-19T06:50:31;11.63;65.24
69543;SHT31;56762;49.494;11.768;2023-05-19T06:53:00;11.72;65.54
69543;SHT31;56762;49.494;11.768;2023-05-19T06:55:28;11.79;65.45
69543;SHT31;56762;49.494;11.768;2023-05-19T06:57:56;11.83;65.37
69543;SHT31;56762;49.494;11.768;2023-05-19T07:00:24;11.82;65.13
69543;SHT31;56762;49.494;11.768;2023-05-19T07:02:52;11.90;64.65
69543;SHT31;56762;49.494;11.768;2023-05-19T07:05:21;11.90;65.37
69543;SHT31;56762;49.494;11.768;2023-05-19T07:07:50;12.00;65.63
69543;SHT31;56762;49.494;11.768;2023-05-19T07:10:21;12.06;64.56
69543;SHT31;56762;49.494;11.768;2023-05-19T07:12:51;12.03;65.02
69543;SHT31;56762;49.494;11.768;2023-05-19T07:15:19;12.14;64.15
69543;SHT31;56762;49.494;11.768;2023-05-19T07:17:47;12.18;64.50
69543;SHT31;56762;49.494;11.768;2023-05-19T07:20:15;12.28;64.19
69543;SHT31;56762;49.494;11.768;2023-05-19T07:22:43;12.28;63.11
69543;SHT31;56762;49.494;11.768;2023-05-19T07:25:13;12.28;62.75
69543;SHT31;56762;49.494;11.768;2023-05-19T07:27:40;12.30;62.50
69543;SHT31;56762;49.494;11.768;2023-05-19T07:30:09;12.30;61.63
69543;SHT31;56762;49.494;11.768;2023-05-19T07:32:37;12.27;60.92
69543;SHT31;56762;49.494;11.768;2023-05-19T07:35:05;12.24;61.33
69543;SHT31;56762;49.494;11.768;2023-05-19T07:37:33;12.33;60.89
69543;SHT31;56762;49.494;11.768;2023-05-19T07:40:02;12.28;60.64
69543;SHT31;56762;49.494;11.768;2023-05-19T07:42:32;12.31;61.19
69543;SHT31;56762;49.494;11.768;2023-05-19T07:45:00;12.41;62.52
69543;SHT31;56762;49.494;11.768;2023-05-19T07:47:29;12.48;61.87
69543;SHT31;56762;49.494;11.768;2023-05-19T07:49:57;12.58;63.25
69543;SHT31;56762;49.494;11.768;2023-05-19T07:52:25;12.67;62.09
69543;SHT31;56762;49.494;11.768;2023-05-19T07:54:53;12.69;62.05
69543;SHT31;56762;49.494;11.768;2023-05-19T07:57:21;12.82;62.60
69543;SHT31;56762;49.494;11.768;2023-05-19T07:59:53;12.93;60.68
69543;SHT31;56762;49.494;11.768;2023-05-19T08:02:22;12.87;60.32
69543;SHT31;56762;49.494;11.768;2023-05-19T08:04:50;12.89;60.17
69543;SHT31;56762;49.494;11.768;2023-05-19T08:07:19;13.00;60.91
69543;SHT31;56762;49.494;11.768;2023-05-19T08:09:47;13.13;60.55
69543;SHT31;56762;49.494;11.768;2023-05-19T08:12:15;13.22;60.40
69543;SHT31;56762;49.494;11.768;2023-05-19T08:14:43;13.16;60.12
69543;SHT31;56762;49.494;11.768;2023-05-19T08:17:14;13.27;59.20
69543;SHT31;56762;49.494;11.768;2023-05-19T08:19:41;13.29;59.79
69543;SHT31;56762;49.494;11.768;2023-05-19T08:22:09;13.20;59.61
69543;SHT31;56762;49.494;11.768;2023-05-19T08:24:37;13.20;59.41
69543;SHT31;56762;49.494;11.768;2023-05-19T08:27:08;13.30;59.03
69543;SHT31;56762;49.494;11.768;2023-05-19T08:29:35;13.22;59.72
69543;SHT31;56762;49.494;11.768;2023-05-19T08:32:04;13.29;59.44
69543;SHT31;56762;49.494;11.768;2023-05-19T08:34:40;13.20;59.12
69543;SHT31;56762;49.494;11.768;2023-05-19T08:37:08;13.27;59.26
69543;SHT31;56762;49.494;11.768;2023-05-19T08:39:37;13.30;59.97
69543;SHT31;56762;49.494;11.768;2023-05-19T08:42:05;13.40;58.76
69543;SHT31;56762;49.494;11.768;2023-05-19T08:44:36;13.39;59.24
69543;SHT31;56762;49.494;11.768;2023-05-19T08:47:06;13.44;59.12
69543;SHT31;56762;49.494;11.768;2023-05-19T08:49:44;13.56;59.75
69543;SHT31;56762;49.494;11.768;2023-05-19T08:52:24;13.58;58.95
69543;SHT31;56762;49.494;11.768;2023-05-19T08:54:59;13.68;59.22
69543;SHT31;56762;49.494;11.768;2023-05-19T08:57:30;13.77;58.99
69543;SHT31;56762;49.494;11.768;2023-05-19T08:59:59;13.78;58.16
69543;SHT31;56762;49.494;11.768;2023-05-19T09:02:32;13.91;58.77
69543;SHT31;56762;49.494;11.768;2023-05-19T09:05:02;13.98;58.49
69543;SHT31;56762;49.494;11.768;2023-05-19T09:07:30;14.07;57.57
69543;SHT31;56762;49.494;11.768;2023-05-19T09:10:00;14.04;57.98
69543;SHT31;56762;49.494;11.768;2023-05-19T09:12:28;14.11;58.91
69543;SHT31;56762;49.494;11.768;2023-05-19T09:14:57;14.05;57.05
69543;SHT31;56762;49.494;11.768;2023-05-19T09:17:25;14.09;57.88
69543;SHT31;56762;49.494;11.768;2023-05-19T09:19:53;14.24;56.76
69543;SHT31;56762;49.494;11.768;2023-05-19T09:22:23;14.29;57.90
69543;SHT31;56762;49.494;11.768;2023-05-19T09:24:52;14.29;56.63
69543;SHT31;56762;49.494;11.768;2023-05-19T09:27:20;14.38;57.43
69543;SHT31;56762;49.494;11.768;2023-05-19T09:29:49;14.45;56.24
69543;SHT31;56762;49.494;11.768;2023-05-19T09:32:24;14.40;56.06
69543;SHT31;56762;49.494;11.768;2023-05-19T09:34:53;14.52;56.15
69543;SHT31;56762;49.494;11.768;2023-05-19T09:37:23;14.50;55.89
69543;SHT31;56762;49.494;11.768;2023-05-19T09:39:52;14.55;55.82
69543;SHT31;56762;49.494;11.768;2023-05-19T09:42:23;14.69;56.67
69543;SHT31;56762;49.494;11.768;2023-05-19T09:44:58;14.72;55.65
69543;SHT31;56762;49.494;11.768;2023-05-19T09:47:27;14.67;55.23
69543;SHT31;56762;49.494;11.768;2023-05-19T09:50:01;14.58;54.88
69543;SHT31;56762;49.494;11.768;2023-05-19T09:52:30;14.58;55.56
69543;SHT31;56762;49.494;11.768;2023-05-19T09:55:00;14.62;55.54
69543;SHT31;56762;49.494;11.768;2023-05-19T09:57:33;14.63;55.27
69543;SHT31;56762;49.494;11.768;2023-05-19T10:00:04;14.65;56.20
69543;SHT31;56762;49.494;11.768;2023-05-19T10:02:41;14.87;56.28
69543;SHT31;56762;49.494;11.768;2023-05-19T10:05:12;14.86;54.77
69543;SHT31;56762;49.494;11.768;2023-05-19T10:07:46;14.91;55.36
69543;SHT31;56762;49.494;11.768;2023-05-19T10:10:18;15.00;55.41
69543;SHT31;56762;49.494;11.768;2023-05-19T10:12:47;15.08;54.69
69543;SHT31;56762;49.494;11.768;2023-05-19T10:15:16;15.07;54.86
69543;SHT31;56762;49.494;11.768;2023-05-19T10:17:49;15.03;54.06
69543;SHT31;56762;49.494;11.768;2023-05-19T10:20:18;15.07;53.63
69543;SHT31;56762;49.494;11.768;2023-05-19T10:22:47;15.08;54.61
69543;SHT31;56762;49.494;11.768;2023-05-19T10:25:16;14.96;53.54
69543;SHT31;56762;49.494;11.768;2023-05-19T10:27:50;14.83;53.65
69543;SHT31;56762;49.494;11.768;2023-05-19T10:30:24;14.89;54.55
69543;SHT31;56762;49.494;11.768;2023-05-19T10:32:54;15.03;55.07
69543;SHT31;56762;49.494;11.768;2023-05-19T10:38:40;15.11;54.96
69543;SHT31;56762;49.494;11.768;2023-05-19T10:41:12;15.16;54.26
69543;SHT31;56762;49.494;11.768;2023-05-19T10:43:50;15.23;53.54
69543;SHT31;56762;49.494;11.768;2023-05-19T10:46:22;15.21;53.17
69543;SHT31;56762;49.494;11.768;2023-05-19T10:48:53;15.14;53.20
69543;SHT31;56762;49.494;11.768;2023-05-19T10:51:27;15.04;53.31
69543;SHT31;56762;49.494;11.768;2023-05-19T10:53:57;15.06;54.98
69543;SHT31;56762;49.494;11.768;2023-05-19T10:56:29;15.20;54.34
69543;SHT31;56762;49.494;11.768;2023-05-19T10:59:00;15.27;54.87
69543;SHT31;56762;49.494;11.768;2023-05-19T11:01:31;15.41;54.46
69543;SHT31;56762;49.494;11.768;2023-05-19T11:04:05;15.57;53.15
69543;SHT31;56762;49.494;11.768;2023-05-19T11:06:36;15.57;53.13
69543;SHT31;56762;49.494;11.768;2023-05-19T11:09:12;15.54;55.08
69543;SHT31;56762;49.494;11.768;2023-05-19T11:11:44;15.65;52.73
69543;SHT31;56762;49.494;11.768;2023-05-19T11:14:14;15.61;52.16
69543;SHT31;56762;49.494;11.768;2023-05-19T11:16:45;15.58;53.39
69543;SHT31;56762;49.494;11.768;2023-05-19T11:19:18;15.62;53.00
69543;SHT31;56762;49.494;11.768;2023-05-19T11:21:47;15.65;53.07
69543;SHT31;56762;49.494;11.768;2023-05-19T11:24:36;15.72;54.35
69543;SHT31;56762;49.494;11.768;2023-05-19T11:27:26;15.83;53.25
69543;SHT31;56762;49.494;11.768;2023-05-19T11:29:55;16.00;53.87
69543;SHT31;56762;49.494;11.768;2023-05-19T11:32:26;15.96;53.81
69543;SHT31;56762;49.494;11.768;2023-05-19T11:34:56;15.98;54.11
69543;SHT31;56762;49.494;11.768;2023-05-19T11:37:25;16.03;53.43
69543;SHT31;56762;49.494;11.768;2023-05-19T11:39:56;16.08;53.75
69543;SHT31;56762;49.494;11.768;2023-05-19T11:42:25;16.10;52.37
69543;SHT31;56762;49.494;11.768;2023-05-19T11:44:54;16.13;54.12
69543;SHT31;56762;49.494;11.768;2023-05-19T11:47:22;16.20;53.48
69543;SHT31;56762;49.494;11.768;2023-05-19T11:49:51;16.14;52.87
69543;SHT31;56762;49.494;11.768;2023-05-19T11:52:26;16.21;53.32
69543;SHT31;56762;49.494;11.768;2023-05-19T11:54:58;16.14;52.59
69543;SHT31;56762;49.494;11.768;2023-05-19T11:57:27;16.24;53.26
69543;SHT31;56762;49.494;11.768;2023-05-19T11:59:55;16.29;52.23
69543;SHT31;56762;49.494;11.768;2023-05-19T12:02:24;16.40;52.24
69543;SHT31;56762;49.494;11.768;2023-05-19T12:04:53;16.46;52.02
69543;SHT31;56762;49.494;11.768;2023-05-19T12:07:22;16.51;53.40
69543;SHT31;56762;49.494;11.768;2023-05-19T12:09:51;16.61;53.10
69543;SHT31;56762;49.494;11.768;2023-05-19T12:12:23;16.65;53.10
69543;SHT31;56762;49.494;11.768;2023-05-19T12:14:52;16.61;51.89
69543;SHT31;56762;49.494;11.768;2023-05-19T12:17:20;16.68;52.10
69543;SHT31;56762;49.494;11.768;2023-05-19T12:19:52;16.68;51.00
69543;SHT31;56762;49.494;11.768;2023-05-19T12:22:20;16.61;52.72
69543;SHT31;56762;49.494;11.768;2023-05-19T12:24:52;16.64;51.71
69543;SHT31;56762;49.494;11.768;2023-05-19T12:27:23;16.58;51.39
69543;SHT31;56762;49.494;11.768;2023-05-19T12:29:55;16.68;52.53
69543;SHT31;56762;49.494;11.768;2023-05-19T12:32:26;16.58;50.68
69543;SHT31;56762;49.494;11.768;2023-05-19T12:34:55;16.63;51.30
69543;SHT31;56762;49.494;11.768;2023-05-19T12:37:25;16.71;51.71
69543;SHT31;56762;49.494;11.768;2023-05-19T12:39:54;16.77;50.65
69543;SHT31;56762;49.494;11.768;2023-05-19T12:42:25;16.74;50.63
69543;SHT31;56762;49.494;11.768;2023-05-19T12:44:58;16.72;51.28
69543;SHT31;56762;49.494;11.768;2023-05-19T12:47:29;16.67;51.80
69543;SHT31;56762;49.494;11.768;2023-05-19T12:50:03;16.67;52.50
69543;SHT31;56762;49.494;11.768;2023-05-19T12:52:33;16.78;51.25
69543;SHT31;56762;49.494;11.768;2023-05-19T12:55:04;16.81;51.83
69543;SHT31;56762;49.494;11.768;2023-05-19T12:57:38;16.91;50.86
69543;SHT31;56762;49.494;11.768;2023-05-19T13:00:12;17.01;50.63
69543;SHT31;56762;49.494;11.768;2023-05-19T13:02:57;16.92;51.00
69543;SHT31;56762;49.494;11.768;2023-05-19T13:05:26;16.89;51.49
69543;SHT31;56762;49.494;11.768;2023-05-19T13:07:56;16.89;51.68
69543;SHT31;56762;49.494;11.768;2023-05-19T13:10:25;16.87;51.53
69543;SHT31;56762;49.494;11.768;2023-05-19T13:12:57;16.92;52.38
69543;SHT31;56762;49.494;11.768;2023-05-19T13:15:28;16.99;51.03
69543;SHT31;56762;49.494;11.768;2023-05-19T13:17:57;16.92;51.39
69543;SHT31;56762;49.494;11.768;2023-05-19T13:20:25;16.95;51.29
69543;SHT31;56762;49.494;11.768;2023-05-19T13:22:55;16.96;51.21
69543;SHT31;56762;49.494;11.768;2023-05-19T13:25:26;17.12;51.24
69543;SHT31;56762;49.494;11.768;2023-05-19T13:27:56;17.18;50.88
69543;SHT31;56762;49.494;11.768;2023-05-19T13:30:26;17.20;51.75
69543;SHT31;56762;49.494;11.768;2023-05-19T13:32:58;17.29;50.99
69543;SHT31;56762;49.494;11.768;2023-05-19T13:35:26;17.15;49.99
69543;SHT31;56762;49.494;11.768;2023-05-19T13:37:55;17.14;51.61
69543;SHT31;56762;49.494;11.768;2023-05-19T13:40:25;17.28;51.81
69543;SHT31;56762;49.494;11.768;2023-05-19T13:42:57;17.25;51.51
69543;SHT31;56762;49.494;11.768;2023-05-19T13:45:26;17.26;51.92
69543;SHT31;56762;49.494;11.768;2023-05-19T13:47:54;17.15;51.45
69543;SHT31;56762;49.494;11.768;2023-05-19T13:50:22;17.07;51.69
69543;SHT31;56762;49.494;11.768;2023-05-19T13:52:50;17.01;51.32
69543;SHT31;56762;49.494;11.768;2023-05-19T13:55:19;16.95;51.94
69543;SHT31;56762;49.494;11.768;2023-05-19T13:57:48;17.07;52.13
69543;SHT31;56762;49.494;11.768;2023-05-19T14:00:19;17.02;52.38
69543;SHT31;56762;49.494;11.768;2023-05-19T14:02:49;16.88;53.44
69543;SHT31;56762;49.494;11.768;2023-05-19T14:05:17;16.77;53.48
69543;SHT31;56762;49.494;11.768;2023-05-19T14:07:47;16.72;53.55
69543;SHT31;56762;49.494;11.768;2023-05-19T14:10:15;16.68;54.13
69543;SHT31;56762;49.494;11.768;2023-05-19T14:12:48;16.68;53.75
69543;SHT31;56762;49.494;11.768;2023-05-19T14:15:25;16.68;53.47
69543;SHT31;56762;49.494;11.768;2023-05-19T14:17:53;16.82;54.38
69543;SHT31;56762;49.494;11.768;2023-05-19T14:20:21;16.89;53.64
69543;SHT31;56762;49.494;11.768;2023-05-19T14:22:49;16.84;53.96
69543;SHT31;56762;49.494;11.768;2023-05-19T14:25:17;16.75;54.41
69543;SHT31;56762;49.494;11.768;2023-05-19T14:27:45;16.71;54.89
69543;SHT31;56762;49.494;11.768;2023-05-19T14:30:13;16.71;55.90
69543;SHT31;56762;49.494;11.768;2023-05-19T14:32:43;16.81;54.75
69543;SHT31;56762;49.494;11.768;2023-05-19T14:35:12;16.77;55.67
69543;SHT31;56762;49.494;11.768;2023-05-19T14:37:44;16.72;55.62
69543;SHT31;56762;49.494;11.768;2023-05-19T14:40:12;16.77;55.36
69543;SHT31;56762;49.494;11.768;2023-05-19T14:42:40;16.74;55.75
69543;SHT31;56762;49.494;11.768;2023-05-19T14:45:13;16.74;55.24
69543;SHT31;56762;49.494;11.768;2023-05-19T14:47:43;16.74;55.12
69543;SHT31;56762;49.494;11.768;2023-05-19T14:50:13;16.67;55.25
69543;SHT31;56762;49.494;11.768;2023-05-19T14:52:41;16.71;56.16
69543;SHT31;56762;49.494;11.768;2023-05-19T14:55:09;16.64;56.06
69543;SHT31;56762;49.494;11.768;2023-05-19T14:57:38;16.64;56.73
69543;SHT31;56762;49.494;11.768;2023-05-19T15:00:07;16.81;56.00
69543;SHT31;56762;49.494;11.768;2023-05-19T15:02:35;16.72;56.76
69543;SHT31;56762;49.494;11.768;2023-05-19T15:05:08;16.64;56.39
69543;SHT31;56762;49.494;11.768;2023-05-19T15:07:37;16.60;56.36
69543;SHT31;56762;49.494;11.768;2023-05-19T15:10:05;16.58;56.57
69543;SHT31;56762;49.494;11.768;2023-05-19T15:12:35;16.50;56.74
69543;SHT31;56762;49.494;11.768;2023-05-19T15:15:04;16.44;57.40
69543;SHT31;56762;49.494;11.768;2023-05-19T15:17:32;16.48;57.63
69543;SHT31;56762;49.494;11.768;2023-05-19T15:20:04;16.56;58.07
69543;SHT31;56762;49.494;11.768;2023-05-19T15:22:35;16.60;57.48
69543;SHT31;56762;49.494;11.768;2023-05-19T15:25:03;16.57;57.65
69543;SHT31;56762;49.494;11.768;2023-05-19T15:27:33;16.68;57.32
69543;SHT31;56762;49.494;11.768;2023-05-19T15:30:01;16.65;57.47
69543;SHT31;56762;49.494;11.768;2023-05-19T15:32:28;16.61;57.84
69543;SHT31;56762;49.494;11.768;2023-05-19T15:34:57;16.60;58.09
69543;SHT31;56762;49.494;11.768;2023-05-19T15:37:24;16.58;58.47
69543;SHT31;56762;49.494;11.768;2023-05-19T15:39:54;16.63;57.66